Lafayette, AL

7:20 PM CDT on July 29, 2014 (GMT -0500)
Opelika, AL - Highland Ave. (KALOPELI3) Elev 856 ft | 32.67 °N, 85.37 °W | Change Station

Current weather conditions updated 13 seconds ago

Partly Cloudy
Partly Cloudy
75.6 °F
Feels Like 78 °F
N
0.0
Wind Variable Wind from WSW
Gusts 0.0 mph

Tomorrow is forecast to be nearly the same temperature as today.

Today
High -- | Low -- °F
--% Chance of Precip.
Yesterday
High -- | Low -- °F
Precip. -- in
5:53 AM 7:42 PM
Waxing Crescent, 8% visible
Pressure 30.04 in
Visibility 10.0 miles
Clouds Few 8000 ft
Heat Index 78 °F
Dew Point 61 °F
Humidity 60%
Rainfall 0.00 in
Snow Depth Not available.
UV 0 out of 12
Pollen 5.30 out of 12
Air Quality Not available.
Flu Activity Not available.
METAR KAUO 300015Z 34007KT 10SM FEW080 24/14 A3004 RMK AO1

More Conditions Fewer Conditions

Pressure 30.04 in
Visibility 10.0 miles
Clouds Few 8000 ft
Heat Index 78 °F
Dew Point 61 °F
Humidity 60%
Rainfall 0.00 in
Snow Depth Not available.
UV 0 out of 12
Pollen 5.30 out of 12
Air Quality Not available.
Flu Activity Not available.
METAR KAUO 300015Z 34007KT 10SM FEW080 24/14 A3004 RMK AO1

More Conditions Fewer Conditions

10-Day Weather Forecast

Almanac

Astronomy

Jul. 29, 2014 Rise Set
Actual Time 5:53 AM CDT 7:42 PM CDT
Civil Twilight 5:26 AM CDT 8:09 PM CDT
Nautical Twilight 4:53 AM CDT 8:42 PM CDT
Astronomical Twilight 4:18 AM CDT 9:17 PM CDT
Moon 8:18 AM CDT (7/29) 9:07 PM CDT (7/29)
Length of Visible Light 14h 43m
Length of Day
13h 49m
Tomorrow will be 1m 26s shorter.
Waxing Crescent, 8% of the Moon is Illuminated
Today
Waxing Crescent
Aug 3
First Quarter
Aug 10
Full
Aug 17
Last Quarter
Aug 25
New

Today's Extremes

State Highs State Lows

Community

WunderPhotos

Upload Photos

1,738,924 photos uploaded!

Nearby

Snow Depth

Station Depth Elevation
No new snow has been reported.

Earthquake Activity

City Distance Mag. Time & Date
No recent earthquake activity has been reported nearby.
Minimum magnitude displayed is 2.5.

Coastal Water Temperatures

Place Temperature
No Stations Reporting

Nearby Weather Stations

Station Location Temp. Heat Index Dew Point Humidity Wind Precip. Elev Updated Type
Opelika, AL - Highland Ave., Opelika, AL 75.6 °F 78 °F 61 °F 60% WSW  at  0.0 mph 0.00 in / hr 856 ft 7:20 PM CDT Rapid Fire
Opelika, Opelika, AL 79.0 °F 80 °F 55 °F 44% NNE  at  5.4 mph 0.00 in / hr 785 ft 7:20 PM CDT Rapid Fire
Bacon Level, Roanoke, AL 72.6 °F 75 °F 62 °F 69% SE  at  0.0 mph 0.00 in / hr 791 ft 7:18 PM CDT Normal
Auburn, AL 76.1 °F 78 °F 65 °F 68% SSW  at  0.0 mph - / hr 646 ft 7:18 PM CDT Normal

Show More Stations Show Fewer Stations